Nur fliegen ist schöner ....

Die nächsten freien Plätze für das Tandemspringen: 23.07. bis 25.07.

Willkommen beim Flugservice Bautzen GmbH

Wir sind eine nach europäischen Richtlinien zugelassene Flugschule und lizenziertes Luftfahrtunternehmen. Bei uns können sie nicht nur Rundflüge über die Oberlausitz oder Sachsen buchen, sondern in unserer Flugschule selber das Fliegen erlernen. Erfahrene Fluglehrer stehen Ihnen dabei zur Seite.

Wir bieten Ihnen außerdem spezielle Flüge zur Vermessung oder Fotoflüge für Luftbildaufnahmen an. In Zusammenarbeit mit dem Fallschirmsportclub Dresden und dem Cottbuser Fallschirmsportclub setzen wir am Flugplatz Bautzen und Neuhausen Fallschirmspringer ab.
Schauen Sie sich in Ruhe bei uns um und wenn Sie Fragen haben oder weitere Informationen benötigen, scheuen Sie sich nicht Kontakt mit uns aufzunehmen.

Gutscheine für Rundflüge und Tandemsprünge können Sie ganz leicht auch online in unserem Shop erwerben.

Terminkalender

Letzter Monat Juli 2021 Nächster Monat
Mo Di Mi Do Fr Sa So
week 26 1 2 3 4
week 27 5 6 7 8 9 10 11
week 28 12 13 14 15 16 17 18
week 29 19 20 21 22 23 24 25
week 30 26 27 28 29 30 31

Flugwetterinfo

[Quelle: ADDS]
METAR
EDDC 280650Z 22005KT 200V270 CAVOK 20/16 Q1012 NOSIG =
EDDC 280500Z 2806/2906 24007KT CAVOK PROB40 TEMPO 2814/2819 -TSRA BKN020CB
TAF
EDDC 280500Z 2806/2906 24007KT CAVOK PROB40 TEMPO 2814/2819 -TSRA BKN020CB =
SR / SS: 03:21 / 18:55 UTC (EDAB Flugplatz Bautzen 2021-07-28)

Öffnungszeiten

des Flugplatzes Bautzen erfahren Sie hier:

flugplatz bautzen logo
Flugservice Bautzen GmbH, Kornmarkt 34, 02625 Bautzen  Telefon: +49 (3591) 211105, Telefax: +49 (3591) 274512, E-Mail:  flugservice(at)fsbautzen.de